sensor_id;sensor_type;location;lat;lon;timestamp;temperature;humidity
44886;DHT22;36669;51.428;21.162;2023-05-15T00:02:11;15.50;93.60
44886;DHT22;36669;51.428;21.162;2023-05-15T00:04:38;15.40;94.40
44886;DHT22;36669;51.428;21.162;2023-05-15T00:07:04;15.40;95.10
44886;DHT22;36669;51.428;21.162;2023-05-15T00:09:31;15.30;95.90
44886;DHT22;36669;51.428;21.162;2023-05-15T00:11:56;15.30;96.60
44886;DHT22;36669;51.428;21.162;2023-05-15T00:14:22;15.20;97.20
44886;DHT22;36669;51.428;21.162;2023-05-15T00:16:49;15.20;98.20
44886;DHT22;36669;51.428;21.162;2023-05-15T00:19:18;15.20;98.80
44886;DHT22;36669;51.428;21.162;2023-05-15T00:21:43;15.10;99.90
44886;DHT22;36669;51.428;21.162;2023-05-15T00:24:09;15.10;99.90
44886;DHT22;36669;51.428;21.162;2023-05-15T00:26:36;15.10;99.90
44886;DHT22;36669;51.428;21.162;2023-05-15T00:29:03;15.00;99.90
44886;DHT22;36669;51.428;21.162;2023-05-15T00:31:29;15.00;99.90
44886;DHT22;36669;51.428;21.162;2023-05-15T00:33:56;15.00;99.90
44886;DHT22;36669;51.428;21.162;2023-05-15T00:36:23;15.00;99.90
44886;DHT22;36669;51.428;21.162;2023-05-15T00:38:51;15.00;99.90
44886;DHT22;36669;51.428;21.162;2023-05-15T00:41:20;14.90;99.90
44886;DHT22;36669;51.428;21.162;2023-05-15T00:43:48;15.00;99.90
44886;DHT22;36669;51.428;21.162;2023-05-15T00:46:15;15.00;99.90
44886;DHT22;36669;51.428;21.162;2023-05-15T00:48:42;15.00;99.90
44886;DHT22;36669;51.428;21.162;2023-05-15T00:51:09;14.90;99.90
44886;DHT22;36669;51.428;21.162;2023-05-15T00:53:38;14.90;99.90
44886;DHT22;36669;51.428;21.162;2023-05-15T00:56:08;14.90;99.90
44886;DHT22;36669;51.428;21.162;2023-05-15T00:58:35;14.90;99.90
44886;DHT22;36669;51.428;21.162;2023-05-15T01:01:02;14.70;99.90
44886;DHT22;36669;51.428;21.162;2023-05-15T01:03:28;14.60;99.90
44886;DHT22;36669;51.428;21.162;2023-05-15T01:05:54;14.60;99.90
44886;DHT22;36669;51.428;21.162;2023-05-15T01:08:37;14.50;99.90
44886;DHT22;36669;51.428;21.162;2023-05-15T01:11:04;14.60;99.90
44886;DHT22;36669;51.428;21.162;2023-05-15T01:13:32;14.50;99.90
44886;DHT22;36669;51.428;21.162;2023-05-15T01:15:57;14.50;99.90
44886;DHT22;36669;51.428;21.162;2023-05-15T01:18:23;14.50;99.90
44886;DHT22;36669;51.428;21.162;2023-05-15T01:26:34;14.40;99.90
44886;DHT22;36669;51.428;21.162;2023-05-15T01:32:05;14.20;99.90
44886;DHT22;36669;51.428;21.162;2023-05-15T01:34:45;14.10;99.90
44886;DHT22;36669;51.428;21.162;2023-05-15T01:37:13;14.00;99.90
44886;DHT22;36669;51.428;21.162;2023-05-15T01:39:52;14.00;99.90
44886;DHT22;36669;51.428;21.162;2023-05-15T01:42:20;13.90;99.90
44886;DHT22;36669;51.428;21.162;2023-05-15T01:44:52;13.80;99.90
44886;DHT22;36669;51.428;21.162;2023-05-15T01:47:39;13.90;99.90
44886;DHT22;36669;51.428;21.162;2023-05-15T01:50:06;13.90;99.90
44886;DHT22;36669;51.428;21.162;2023-05-15T01:52:37;13.90;99.90
44886;DHT22;36669;51.428;21.162;2023-05-15T01:55:04;13.90;99.90
44886;DHT22;36669;51.428;21.162;2023-05-15T01:57:35;13.80;99.90
44886;DHT22;36669;51.428;21.162;2023-05-15T02:00:03;13.80;99.90
44886;DHT22;36669;51.428;21.162;2023-05-15T02:02:30;13.80;99.90
44886;DHT22;36669;51.428;21.162;2023-05-15T02:04:57;13.60;99.90
44886;DHT22;36669;51.428;21.162;2023-05-15T02:07:25;13.50;99.90
44886;DHT22;36669;51.428;21.162;2023-05-15T02:09:55;13.40;99.90
44886;DHT22;36669;51.428;21.162;2023-05-15T02:12:22;13.40;99.90
44886;DHT22;36669;51.428;21.162;2023-05-15T02:14:53;13.40;99.90
44886;DHT22;36669;51.428;21.162;2023-05-15T02:17:22;13.30;99.90
44886;DHT22;36669;51.428;21.162;2023-05-15T02:19:49;13.30;99.90
44886;DHT22;36669;51.428;21.162;2023-05-15T02:22:15;13.30;99.90
44886;DHT22;36669;51.428;21.162;2023-05-15T02:24:42;13.20;99.90
44886;DHT22;36669;51.428;21.162;2023-05-15T02:35:47;13.10;99.90
44886;DHT22;36669;51.428;21.162;2023-05-15T02:38:18;13.20;99.90
44886;DHT22;36669;51.428;21.162;2023-05-15T02:40:44;13.20;99.90
44886;DHT22;36669;51.428;21.162;2023-05-15T02:43:12;13.30;99.90
44886;DHT22;36669;51.428;21.162;2023-05-15T02:45:39;13.30;99.90
44886;DHT22;36669;51.428;21.162;2023-05-15T02:48:06;13.30;99.90
44886;DHT22;36669;51.428;21.162;2023-05-15T02:50:34;13.30;99.90
44886;DHT22;36669;51.428;21.162;2023-05-15T02:53:04;13.30;99.90
44886;DHT22;36669;51.428;21.162;2023-05-15T02:55:36;13.30;99.90
44886;DHT22;36669;51.428;21.162;2023-05-15T02:58:03;13.30;99.90
44886;DHT22;36669;51.428;21.162;2023-05-15T03:00:30;13.30;99.90
44886;DHT22;36669;51.428;21.162;2023-05-15T03:02:57;13.20;99.90
44886;DHT22;36669;51.428;21.162;2023-05-15T03:05:22;13.20;99.90
44886;DHT22;36669;51.428;21.162;2023-05-15T03:07:48;13.20;99.90
44886;DHT22;36669;51.428;21.162;2023-05-15T03:10:15;13.20;99.90
44886;DHT22;36669;51.428;21.162;2023-05-15T03:12:42;13.20;99.90
44886;DHT22;36669;51.428;21.162;2023-05-15T03:15:08;13.20;99.90
44886;DHT22;36669;51.428;21.162;2023-05-15T03:17:35;13.20;99.90
44886;DHT22;36669;51.428;21.162;2023-05-15T03:20:02;13.20;99.90
44886;DHT22;36669;51.428;21.162;2023-05-15T03:22:30;13.20;99.90
44886;DHT22;36669;51.428;21.162;2023-05-15T03:24:57;13.30;99.90
44886;DHT22;36669;51.428;21.162;2023-05-15T03:27:24;13.30;99.90
44886;DHT22;36669;51.428;21.162;2023-05-15T03:29:51;13.30;99.90
44886;DHT22;36669;51.428;21.162;2023-05-15T03:32:17;13.20;99.90
44886;DHT22;36669;51.428;21.162;2023-05-15T03:34:43;13.30;99.90
44886;DHT22;36669;51.428;21.162;2023-05-15T03:37:11;13.30;99.90
44886;DHT22;36669;51.428;21.162;2023-05-15T03:39:38;13.30;99.90
44886;DHT22;36669;51.428;21.162;2023-05-15T03:42:03;13.30;99.90
44886;DHT22;36669;51.428;21.162;2023-05-15T03:44:29;13.20;99.90
44886;DHT22;36669;51.428;21.162;2023-05-15T03:46:56;13.20;99.90
44886;DHT22;36669;51.428;21.162;2023-05-15T03:49:22;13.20;99.90
44886;DHT22;36669;51.428;21.162;2023-05-15T03:51:48;13.20;99.90
44886;DHT22;36669;51.428;21.162;2023-05-15T03:54:14;13.20;99.90
44886;DHT22;36669;51.428;21.162;2023-05-15T03:56:39;13.30;99.90
44886;DHT22;36669;51.428;21.162;2023-05-15T03:59:06;13.30;99.90
44886;DHT22;36669;51.428;21.162;2023-05-15T04:01:33;13.30;99.90
44886;DHT22;36669;51.428;21.162;2023-05-15T04:03:58;13.30;99.90
44886;DHT22;36669;51.428;21.162;2023-05-15T04:06:25;13.30;99.90
44886;DHT22;36669;51.428;21.162;2023-05-15T04:08:52;13.30;99.90
44886;DHT22;36669;51.428;21.162;2023-05-15T04:11:18;13.30;99.90
44886;DHT22;36669;51.428;21.162;2023-05-15T04:13:45;13.30;99.90
44886;DHT22;36669;51.428;21.162;2023-05-15T04:16:13;13.30;99.90
44886;DHT22;36669;51.428;21.162;2023-05-15T04:18:40;13.20;99.90
44886;DHT22;36669;51.428;21.162;2023-05-15T04:21:05;13.30;99.90
44886;DHT22;36669;51.428;21.162;2023-05-15T04:23:32;13.30;99.90
44886;DHT22;36669;51.428;21.162;2023-05-15T04:25:59;13.30;99.90
44886;DHT22;36669;51.428;21.162;2023-05-15T04:28:26;13.30;99.90
44886;DHT22;36669;51.428;21.162;2023-05-15T04:30:53;13.30;99.90
44886;DHT22;36669;51.428;21.162;2023-05-15T04:33:20;13.20;99.90
44886;DHT22;36669;51.428;21.162;2023-05-15T04:35:47;13.20;99.90
44886;DHT22;36669;51.428;21.162;2023-05-15T04:38:13;13.20;99.90
44886;DHT22;36669;51.428;21.162;2023-05-15T04:40:40;13.30;99.90
44886;DHT22;36669;51.428;21.162;2023-05-15T04:43:05;13.30;99.90
44886;DHT22;36669;51.428;21.162;2023-05-15T04:45:32;13.40;99.90
44886;DHT22;36669;51.428;21.162;2023-05-15T04:47:57;13.40;99.90
44886;DHT22;36669;51.428;21.162;2023-05-15T04:50:26;13.40;99.90
44886;DHT22;36669;51.428;21.162;2023-05-15T04:52:52;13.40;99.90
44886;DHT22;36669;51.428;21.162;2023-05-15T04:55:18;13.40;99.90
44886;DHT22;36669;51.428;21.162;2023-05-15T04:57:45;13.40;99.90
44886;DHT22;36669;51.428;21.162;2023-05-15T05:00:12;13.40;99.90
44886;DHT22;36669;51.428;21.162;2023-05-15T05:02:40;13.30;99.90
44886;DHT22;36669;51.428;21.162;2023-05-15T05:05:08;13.30;99.90
44886;DHT22;36669;51.428;21.162;2023-05-15T05:07:35;13.30;99.90
44886;DHT22;36669;51.428;21.162;2023-05-15T05:10:02;13.20;99.90
44886;DHT22;36669;51.428;21.162;2023-05-15T05:12:30;13.20;99.90
44886;DHT22;36669;51.428;21.162;2023-05-15T05:14:57;13.10;99.90
44886;DHT22;36669;51.428;21.162;2023-05-15T05:17:24;13.10;99.90
44886;DHT22;36669;51.428;21.162;2023-05-15T05:19:51;13.00;99.90
44886;DHT22;36669;51.428;21.162;2023-05-15T05:22:18;13.00;99.90
44886;DHT22;36669;51.428;21.162;2023-05-15T05:24:45;13.00;99.90
44886;DHT22;36669;51.428;21.162;2023-05-15T05:27:12;13.00;99.90
44886;DHT22;36669;51.428;21.162;2023-05-15T05:29:38;12.90;99.90
44886;DHT22;36669;51.428;21.162;2023-05-15T05:32:05;12.90;99.90
44886;DHT22;36669;51.428;21.162;2023-05-15T05:34:33;12.90;99.90
44886;DHT22;36669;51.428;21.162;2023-05-15T05:37:00;12.80;99.90
44886;DHT22;36669;51.428;21.162;2023-05-15T05:39:27;12.80;99.90
44886;DHT22;36669;51.428;21.162;2023-05-15T05:41:52;12.80;99.90
44886;DHT22;36669;51.428;21.162;2023-05-15T05:44:19;12.70;99.90
44886;DHT22;36669;51.428;21.162;2023-05-15T05:46:44;12.70;99.90
44886;DHT22;36669;51.428;21.162;2023-05-15T05:49:12;12.60;99.90
44886;DHT22;36669;51.428;21.162;2023-05-15T05:51:39;12.60;99.90
44886;DHT22;36669;51.428;21.162;2023-05-15T05:54:05;12.50;99.90
44886;DHT22;36669;51.428;21.162;2023-05-15T05:56:32;12.50;99.90
44886;DHT22;36669;51.428;21.162;2023-05-15T05:58:59;12.50;99.90
44886;DHT22;36669;51.428;21.162;2023-05-15T06:01:28;12.30;99.90
44886;DHT22;36669;51.428;21.162;2023-05-15T06:03:53;12.40;99.90
44886;DHT22;36669;51.428;21.162;2023-05-15T06:06:20;12.40;99.90
44886;DHT22;36669;51.428;21.162;2023-05-15T06:08:46;12.30;99.90
44886;DHT22;36669;51.428;21.162;2023-05-15T06:11:13;12.40;99.90
44886;DHT22;36669;51.428;21.162;2023-05-15T06:13:39;12.40;99.90
44886;DHT22;36669;51.428;21.162;2023-05-15T06:16:07;12.40;99.90
44886;DHT22;36669;51.428;21.162;2023-05-15T06:18:33;12.40;99.90
44886;DHT22;36669;51.428;21.162;2023-05-15T06:21:00;12.40;99.90
44886;DHT22;36669;51.428;21.162;2023-05-15T06:23:27;12.40;99.90
44886;DHT22;36669;51.428;21.162;2023-05-15T06:25:53;12.30;99.90
44886;DHT22;36669;51.428;21.162;2023-05-15T06:28:19;12.30;99.90
44886;DHT22;36669;51.428;21.162;2023-05-15T06:30:46;12.30;99.90
44886;DHT22;36669;51.428;21.162;2023-05-15T06:33:13;12.40;99.90
44886;DHT22;36669;51.428;21.162;2023-05-15T06:35:40;12.40;99.90
44886;DHT22;36669;51.428;21.162;2023-05-15T06:38:06;12.50;99.90
44886;DHT22;36669;51.428;21.162;2023-05-15T06:40:33;12.50;99.90
44886;DHT22;36669;51.428;21.162;2023-05-15T06:42:59;12.60;99.90
44886;DHT22;36669;51.428;21.162;2023-05-15T06:45:26;12.60;99.90
44886;DHT22;36669;51.428;21.162;2023-05-15T06:47:53;12.60;99.90
44886;DHT22;36669;51.428;21.162;2023-05-15T06:50:20;12.60;99.90
44886;DHT22;36669;51.428;21.162;2023-05-15T06:52:46;12.70;99.90
44886;DHT22;36669;51.428;21.162;2023-05-15T06:55:13;12.80;99.90
44886;DHT22;36669;51.428;21.162;2023-05-15T06:57:40;12.80;99.90
44886;DHT22;36669;51.428;21.162;2023-05-15T07:00:08;12.70;99.90
44886;DHT22;36669;51.428;21.162;2023-05-15T07:02:36;12.70;99.90
44886;DHT22;36669;51.428;21.162;2023-05-15T07:05:03;12.80;99.90
44886;DHT22;36669;51.428;21.162;2023-05-15T07:07:30;12.90;99.90
44886;DHT22;36669;51.428;21.162;2023-05-15T07:09:57;12.90;99.90
44886;DHT22;36669;51.428;21.162;2023-05-15T07:12:24;12.80;99.90
44886;DHT22;36669;51.428;21.162;2023-05-15T07:14:50;12.80;99.90
44886;DHT22;36669;51.428;21.162;2023-05-15T07:17:17;12.80;99.90
44886;DHT22;36669;51.428;21.162;2023-05-15T07:19:44;12.80;99.90
44886;DHT22;36669;51.428;21.162;2023-05-15T07:22:11;12.90;99.90
44886;DHT22;36669;51.428;21.162;2023-05-15T07:24:38;12.90;99.90
44886;DHT22;36669;51.428;21.162;2023-05-15T07:27:05;12.80;99.90
44886;DHT22;36669;51.428;21.162;2023-05-15T07:29:32;12.70;99.90
44886;DHT22;36669;51.428;21.162;2023-05-15T07:31:57;12.60;99.90
44886;DHT22;36669;51.428;21.162;2023-05-15T07:34:24;12.60;99.90
44886;DHT22;36669;51.428;21.162;2023-05-15T07:36:50;12.50;99.90
44886;DHT22;36669;51.428;21.162;2023-05-15T07:39:16;12.50;99.90
44886;DHT22;36669;51.428;21.162;2023-05-15T07:41:42;12.60;99.90
44886;DHT22;36669;51.428;21.162;2023-05-15T07:44:09;12.60;99.90
44886;DHT22;36669;51.428;21.162;2023-05-15T07:46:35;12.60;99.90
44886;DHT22;36669;51.428;21.162;2023-05-15T07:49:04;12.60;99.90
44886;DHT22;36669;51.428;21.162;2023-05-15T07:51:31;12.50;99.90
44886;DHT22;36669;51.428;21.162;2023-05-15T07:53:57;12.50;99.90
44886;DHT22;36669;51.428;21.162;2023-05-15T07:56:25;12.50;99.90
44886;DHT22;36669;51.428;21.162;2023-05-15T07:58:51;12.40;99.90
44886;DHT22;36669;51.428;21.162;2023-05-15T08:01:19;12.40;99.90
44886;DHT22;36669;51.428;21.162;2023-05-15T08:03:44;12.40;99.90
44886;DHT22;36669;51.428;21.162;2023-05-15T08:06:10;12.40;99.90
44886;DHT22;36669;51.428;21.162;2023-05-15T08:08:35;12.40;99.90
44886;DHT22;36669;51.428;21.162;2023-05-15T08:11:02;12.40;99.90
44886;DHT22;36669;51.428;21.162;2023-05-15T08:13:29;12.30;99.90
44886;DHT22;36669;51.428;21.162;2023-05-15T08:15:55;12.30;99.90
44886;DHT22;36669;51.428;21.162;2023-05-15T08:18:22;12.40;99.90
44886;DHT22;36669;51.428;21.162;2023-05-15T08:20:48;12.30;99.90
44886;DHT22;36669;51.428;21.162;2023-05-15T08:23:15;12.40;99.90
44886;DHT22;36669;51.428;21.162;2023-05-15T08:25:42;12.40;99.90
44886;DHT22;36669;51.428;21.162;2023-05-15T08:28:08;12.40;99.90
44886;DHT22;36669;51.428;21.162;2023-05-15T08:30:36;12.40;99.90
44886;DHT22;36669;51.428;21.162;2023-05-15T08:33:03;12.50;99.90
44886;DHT22;36669;51.428;21.162;2023-05-15T08:35:30;12.50;99.90
44886;DHT22;36669;51.428;21.162;2023-05-15T08:37:56;12.60;99.90
44886;DHT22;36669;51.428;21.162;2023-05-15T08:40:23;12.50;99.90
44886;DHT22;36669;51.428;21.162;2023-05-15T08:42:53;12.50;99.90
44886;DHT22;36669;51.428;21.162;2023-05-15T08:45:20;12.50;99.90
44886;DHT22;36669;51.428;21.162;2023-05-15T08:47:48;12.60;99.90
44886;DHT22;36669;51.428;21.162;2023-05-15T08:50:14;12.60;99.90
44886;DHT22;36669;51.428;21.162;2023-05-15T08:52:45;12.60;99.90
44886;DHT22;36669;51.428;21.162;2023-05-15T08:55:13;12.70;99.90
44886;DHT22;36669;51.428;21.162;2023-05-15T08:57:38;12.70;99.90
44886;DHT22;36669;51.428;21.162;2023-05-15T09:00:06;12.80;99.90
44886;DHT22;36669;51.428;21.162;2023-05-15T09:02:37;12.80;99.90
44886;DHT22;36669;51.428;21.162;2023-05-15T09:05:03;12.80;99.90
44886;DHT22;36669;51.428;21.162;2023-05-15T09:07:31;12.90;99.90
44886;DHT22;36669;51.428;21.162;2023-05-15T09:09:58;12.90;99.90
44886;DHT22;36669;51.428;21.162;2023-05-15T09:12:34;12.90;99.90
44886;DHT22;36669;51.428;21.162;2023-05-15T09:15:14;13.00;99.90
44886;DHT22;36669;51.428;21.162;2023-05-15T09:17:43;12.90;99.90
44886;DHT22;36669;51.428;21.162;2023-05-15T09:22:55;13.00;99.90
44886;DHT22;36669;51.428;21.162;2023-05-15T09:28:07;12.90;99.90
44886;DHT22;36669;51.428;21.162;2023-05-15T09:30:38;12.80;99.90
44886;DHT22;36669;51.428;21.162;2023-05-15T09:33:05;12.80;99.90
44886;DHT22;36669;51.428;21.162;2023-05-15T09:35:34;12.70;99.90
44886;DHT22;36669;51.428;21.162;2023-05-15T09:38:04;12.80;99.90
44886;DHT22;36669;51.428;21.162;2023-05-15T09:40:32;12.90;99.90
44886;DHT22;36669;51.428;21.162;2023-05-15T09:42:57;12.80;99.90
44886;DHT22;36669;51.428;21.162;2023-05-15T09:45:25;12.80;99.90
44886;DHT22;36669;51.428;21.162;2023-05-15T09:47:54;12.80;99.90
44886;DHT22;36669;51.428;21.162;2023-05-15T09:50:21;12.80;99.90
44886;DHT22;36669;51.428;21.162;2023-05-15T09:52:47;12.80;99.90
44886;DHT22;36669;51.428;21.162;2023-05-15T09:55:15;12.80;99.90
44886;DHT22;36669;51.428;21.162;2023-05-15T09:57:41;12.90;99.90
44886;DHT22;36669;51.428;21.162;2023-05-15T10:00:09;13.00;99.90
44886;DHT22;36669;51.428;21.162;2023-05-15T10:02:38;13.00;99.90
44886;DHT22;36669;51.428;21.162;2023-05-15T10:05:08;13.10;99.90
44886;DHT22;36669;51.428;21.162;2023-05-15T10:07:37;13.10;99.90
44886;DHT22;36669;51.428;21.162;2023-05-15T10:10:03;13.00;99.90
44886;DHT22;36669;51.428;21.162;2023-05-15T10:12:30;13.10;99.90
44886;DHT22;36669;51.428;21.162;2023-05-15T10:14:56;13.00;99.90
44886;DHT22;36669;51.428;21.162;2023-05-15T10:17:24;13.00;99.90
44886;DHT22;36669;51.428;21.162;2023-05-15T10:19:51;13.00;99.90
44886;DHT22;36669;51.428;21.162;2023-05-15T10:22:18;12.90;99.90
44886;DHT22;36669;51.428;21.162;2023-05-15T10:24:45;12.90;99.90
44886;DHT22;36669;51.428;21.162;2023-05-15T10:27:11;12.90;99.90
44886;DHT22;36669;51.428;21.162;2023-05-15T10:29:37;12.90;99.90
44886;DHT22;36669;51.428;21.162;2023-05-15T10:32:03;12.80;99.90
44886;DHT22;36669;51.428;21.162;2023-05-15T10:34:31;12.80;99.90
44886;DHT22;36669;51.428;21.162;2023-05-15T10:36:56;12.80;99.90
44886;DHT22;36669;51.428;21.162;2023-05-15T10:39:24;12.80;99.90
44886;DHT22;36669;51.428;21.162;2023-05-15T10:42:01;12.80;99.90
44886;DHT22;36669;51.428;21.162;2023-05-15T10:44:29;12.80;99.90
44886;DHT22;36669;51.428;21.162;2023-05-15T10:46:55;12.70;99.90
44886;DHT22;36669;51.428;21.162;2023-05-15T10:49:21;12.80;99.90
44886;DHT22;36669;51.428;21.162;2023-05-15T10:51:47;12.70;99.90
44886;DHT22;36669;51.428;21.162;2023-05-15T10:54:14;12.70;99.90
44886;DHT22;36669;51.428;21.162;2023-05-15T10:56:41;12.70;99.90
44886;DHT22;36669;51.428;21.162;2023-05-15T10:59:08;12.80;99.90
44886;DHT22;36669;51.428;21.162;2023-05-15T11:01:35;12.70;99.90
44886;DHT22;36669;51.428;21.162;2023-05-15T11:04:09;12.70;99.90
44886;DHT22;36669;51.428;21.162;2023-05-15T11:06:39;12.80;99.90
44886;DHT22;36669;51.428;21.162;2023-05-15T11:12:00;12.80;99.90
44886;DHT22;36669;51.428;21.162;2023-05-15T11:17:21;12.80;99.90
44886;DHT22;36669;51.428;21.162;2023-05-15T11:22:31;12.80;99.90
44886;DHT22;36669;51.428;21.162;2023-05-15T11:25:10;12.90;99.90
44886;DHT22;36669;51.428;21.162;2023-05-15T11:27:45;12.90;99.90
44886;DHT22;36669;51.428;21.162;2023-05-15T11:30:17;12.90;99.90
44886;DHT22;36669;51.428;21.162;2023-05-15T11:35:12;12.90;99.90
44886;DHT22;36669;51.428;21.162;2023-05-15T11:37:44;13.00;99.90
44886;DHT22;36669;51.428;21.162;2023-05-15T11:40:30;13.00;99.90
44886;DHT22;36669;51.428;21.162;2023-05-15T11:45:42;13.00;99.90
44886;DHT22;36669;51.428;21.162;2023-05-15T11:48:14;13.00;99.90
44886;DHT22;36669;51.428;21.162;2023-05-15T11:50:41;13.00;99.90
44886;DHT22;36669;51.428;21.162;2023-05-15T11:53:09;13.10;99.90
44886;DHT22;36669;51.428;21.162;2023-05-15T11:55:36;13.10;99.90
44886;DHT22;36669;51.428;21.162;2023-05-15T11:58:04;13.10;99.90
44886;DHT22;36669;51.428;21.162;2023-05-15T12:00:31;13.00;99.90
44886;DHT22;36669;51.428;21.162;2023-05-15T12:02:58;13.10;99.90
44886;DHT22;36669;51.428;21.162;2023-05-15T12:05:24;13.20;99.90
44886;DHT22;36669;51.428;21.162;2023-05-15T12:07:51;13.30;99.90
44886;DHT22;36669;51.428;21.162;2023-05-15T12:10:17;13.30;99.90
44886;DHT22;36669;51.428;21.162;2023-05-15T12:12:44;13.20;99.90
44886;DHT22;36669;51.428;21.162;2023-05-15T12:15:13;13.20;99.90
44886;DHT22;36669;51.428;21.162;2023-05-15T12:17:40;13.30;99.90
44886;DHT22;36669;51.428;21.162;2023-05-15T12:20:16;13.30;99.90
44886;DHT22;36669;51.428;21.162;2023-05-15T12:22:42;13.30;99.90
44886;DHT22;36669;51.428;21.162;2023-05-15T12:25:09;13.30;99.90
44886;DHT22;36669;51.428;21.162;2023-05-15T12:27:37;13.30;99.90
44886;DHT22;36669;51.428;21.162;2023-05-15T12:30:03;13.40;99.90
44886;DHT22;36669;51.428;21.162;2023-05-15T12:32:30;13.40;99.90
44886;DHT22;36669;51.428;21.162;2023-05-15T12:34:56;13.40;99.90
44886;DHT22;36669;51.428;21.162;2023-05-15T12:37:22;13.40;99.90
44886;DHT22;36669;51.428;21.162;2023-05-15T12:39:48;13.40;99.90
44886;DHT22;36669;51.428;21.162;2023-05-15T12:42:16;13.40;99.90
44886;DHT22;36669;51.428;21.162;2023-05-15T12:44:42;13.40;99.90
44886;DHT22;36669;51.428;21.162;2023-05-15T12:47:12;13.40;99.90
44886;DHT22;36669;51.428;21.162;2023-05-15T12:49:39;13.40;99.90
44886;DHT22;36669;51.428;21.162;2023-05-15T12:52:09;13.40;99.90
44886;DHT22;36669;51.428;21.162;2023-05-15T12:54:40;13.50;99.90
44886;DHT22;36669;51.428;21.162;2023-05-15T12:57:10;13.60;99.90
44886;DHT22;36669;51.428;21.162;2023-05-15T12:59:38;13.70;99.90
44886;DHT22;36669;51.428;21.162;2023-05-15T13:02:07;13.80;99.90
44886;DHT22;36669;51.428;21.162;2023-05-15T13:04:37;14.00;99.90
44886;DHT22;36669;51.428;21.162;2023-05-15T13:07:05;14.10;99.90
44886;DHT22;36669;51.428;21.162;2023-05-15T13:09:32;14.30;99.90
44886;DHT22;36669;51.428;21.162;2023-05-15T13:12:01;14.50;99.90
44886;DHT22;36669;51.428;21.162;2023-05-15T13:14:32;14.60;99.90
44886;DHT22;36669;51.428;21.162;2023-05-15T13:16:59;14.80;99.90
44886;DHT22;36669;51.428;21.162;2023-05-15T13:19:30;15.00;99.90
44886;DHT22;36669;51.428;21.162;2023-05-15T13:21:57;15.20;99.90
44886;DHT22;36669;51.428;21.162;2023-05-15T13:24:24;15.40;99.90
44886;DHT22;36669;51.428;21.162;2023-05-15T13:26:50;15.40;99.90
44886;DHT22;36669;51.428;21.162;2023-05-15T13:29:18;15.50;99.90
44886;DHT22;36669;51.428;21.162;2023-05-15T13:31:44;15.60;99.90
44886;DHT22;36669;51.428;21.162;2023-05-15T13:34:09;15.90;99.90
44886;DHT22;36669;51.428;21.162;2023-05-15T13:36:36;15.70;99.90
44886;DHT22;36669;51.428;21.162;2023-05-15T13:39:03;15.80;99.90
44886;DHT22;36669;51.428;21.162;2023-05-15T13:41:32;15.80;99.90
44886;DHT22;36669;51.428;21.162;2023-05-15T13:43:57;15.80;99.90
44886;DHT22;36669;51.428;21.162;2023-05-15T13:46:24;15.70;99.90
44886;DHT22;36669;51.428;21.162;2023-05-15T13:48:49;15.80;99.90
44886;DHT22;36669;51.428;21.162;2023-05-15T13:51:16;15.90;99.90
44886;DHT22;36669;51.428;21.162;2023-05-15T13:53:43;15.90;99.90
44886;DHT22;36669;51.428;21.162;2023-05-15T13:56:09;15.90;99.90
44886;DHT22;36669;51.428;21.162;2023-05-15T13:58:35;16.10;99.90
44886;DHT22;36669;51.428;21.162;2023-05-15T14:01:03;15.90;99.90
44886;DHT22;36669;51.428;21.162;2023-05-15T14:03:29;15.90;99.90
44886;DHT22;36669;51.428;21.162;2023-05-15T14:05:55;15.70;99.90
44886;DHT22;36669;51.428;21.162;2023-05-15T14:08:22;15.50;99.90
44886;DHT22;36669;51.428;21.162;2023-05-15T14:10:49;15.50;99.90
44886;DHT22;36669;51.428;21.162;2023-05-15T14:13:14;15.70;99.90
44886;DHT22;36669;51.428;21.162;2023-05-15T14:15:41;15.60;99.90
44886;DHT22;36669;51.428;21.162;2023-05-15T14:18:07;15.70;99.90
44886;DHT22;36669;51.428;21.162;2023-05-15T14:20:34;15.60;99.90
44886;DHT22;36669;51.428;21.162;2023-05-15T14:23:00;15.70;99.90
44886;DHT22;36669;51.428;21.162;2023-05-15T14:25:26;15.80;99.90
44886;DHT22;36669;51.428;21.162;2023-05-15T14:27:51;15.80;99.90
44886;DHT22;36669;51.428;21.162;2023-05-15T14:30:20;15.70;99.90
44886;DHT22;36669;51.428;21.162;2023-05-15T14:32:45;15.90;99.90
44886;DHT22;36669;51.428;21.162;2023-05-15T14:35:12;15.80;99.90
44886;DHT22;36669;51.428;21.162;2023-05-15T14:37:39;15.80;99.90
44886;DHT22;36669;51.428;21.162;2023-05-15T14:40:06;15.60;99.90
44886;DHT22;36669;51.428;21.162;2023-05-15T14:42:32;15.60;99.90
44886;DHT22;36669;51.428;21.162;2023-05-15T14:44:59;15.60;99.90
44886;DHT22;36669;51.428;21.162;2023-05-15T14:47:25;15.80;99.90
44886;DHT22;36669;51.428;21.162;2023-05-15T14:49:54;15.70;99.90
44886;DHT22;36669;51.428;21.162;2023-05-15T14:52:19;15.70;99.90
44886;DHT22;36669;51.428;21.162;2023-05-15T14:54:45;15.90;99.90
44886;DHT22;36669;51.428;21.162;2023-05-15T14:57:10;16.00;99.90
44886;DHT22;36669;51.428;21.162;2023-05-15T14:59:38;15.90;99.90
44886;DHT22;36669;51.428;21.162;2023-05-15T15:02:05;16.10;99.90
44886;DHT22;36669;51.428;21.162;2023-05-15T15:04:32;16.20;99.90
44886;DHT22;36669;51.428;21.162;2023-05-15T15:06:58;16.40;99.90
44886;DHT22;36669;51.428;21.162;2023-05-15T15:09:25;16.60;99.90
44886;DHT22;36669;51.428;21.162;2023-05-15T15:11:52;17.10;99.90
44886;DHT22;36669;51.428;21.162;2023-05-15T15:14:19;18.10;99.90
44886;DHT22;36669;51.428;21.162;2023-05-15T15:16:44;18.50;99.90
44886;DHT22;36669;51.428;21.162;2023-05-15T15:19:11;18.60;99.90
44886;DHT22;36669;51.428;21.162;2023-05-15T15:21:38;19.40;99.90
44886;DHT22;36669;51.428;21.162;2023-05-15T15:24:04;20.10;99.90
44886;DHT22;36669;51.428;21.162;2023-05-15T15:26:31;21.30;99.90
44886;DHT22;36669;51.428;21.162;2023-05-15T15:28:58;21.60;99.90
44886;DHT22;36669;51.428;21.162;2023-05-15T15:31:28;22.70;99.90
44886;DHT22;36669;51.428;21.162;2023-05-15T15:33:55;22.50;99.90
44886;DHT22;36669;51.428;21.162;2023-05-15T15:36:22;22.00;99.90
44886;DHT22;36669;51.428;21.162;2023-05-15T15:38:48;22.40;99.90
44886;DHT22;36669;51.428;21.162;2023-05-15T15:41:15;22.00;99.90
44886;DHT22;36669;51.428;21.162;2023-05-15T15:43:41;21.70;99.90
44886;DHT22;36669;51.428;21.162;2023-05-15T15:46:08;21.20;99.90
44886;DHT22;36669;51.428;21.162;2023-05-15T15:48:34;19.90;99.90
44886;DHT22;36669;51.428;21.162;2023-05-15T15:51:01;19.70;99.90
44886;DHT22;36669;51.428;21.162;2023-05-15T15:53:28;19.00;99.90